Flight Track Log - Related Links

Times and Time Zones

All times are in EDT time to prevent confusion due to time zone crossing. See the NKS226 flight status page for this flight to view local times or setup timezone preferences in your user account.

Time Position Orientation Groundspeed Altitude Reporting Facility
EDT Latitude Longitude Course Direction KTS MPH feet Rate Location/Type
Mon 11:09:56 AM 33.5897 -78.8386 49° Northeast 263 303 4,100  Level Jacksonville Center
Mon 11:10:56 AM 33.6506 -78.7858 36° Northeast 228 262 6,000 2,250 Climbing Jacksonville Center
Mon 11:11:56 AM 33.7247 -78.7575 18° North 216 249 8,600 2,400 Climbing Jacksonville Center
Mon 11:12:56 AM 33.8053 -78.7286 17° North 265 305 10,800 2,083 Climbing Jacksonville Center
Mon 11:14:00 AM 33.8675 -78.6255 49° Northeast  Level FlightAware Approximate
Mon 11:15:09 AM 33.9397 -78.5306 51° Northeast 345 397 15,300  Level Washington Center
Mon 11:16:09 AM 34.0047 -78.4275 53° Northeast 371 427 17,600 2,118 Climbing Washington Center
Mon 11:17:08 AM 34.0739 -78.3197 52° Northeast 392 451 19,500 1,866 Climbing Washington Center
Mon 11:18:08 AM 34.1431 -78.2117 52° Northeast 403 464 21,300 1,504 Climbing Washington Center
Mon 11:23:35 AM 34.7170 -77.8696 North 451 519 29,200 1,390 Climbing FlightAware ADS-B
Mon 11:24:15 AM 34.8020 -77.8683 North 460 529 29,800 904 Climbing FlightAware ADS-B
Mon 11:24:48 AM 34.8729 -77.8673 North 462 532 30,300 1,000 Climbing FlightAware ADS-B
Mon 11:25:33 AM 34.9685 -77.8660 North 459 528 31,100 1,067 Climbing FlightAware ADS-B
Mon 11:26:18 AM 35.0641 -77.8646 North 459 528 31,900 1,000 Climbing FlightAware ADS-B
Mon 11:27:03 AM 35.1459 -77.8635 North 457 526 32,600 868 Climbing FlightAware ADS-B
Mon 11:27:34 AM 35.2177 -77.8624 North 455 524 33,000 312 Climbing FlightAware ADS-B
Mon 11:28:20 AM 35.3209 -77.8609 North 455 524 33,000  Level FlightAware ADS-B
Mon 11:29:05 AM 35.4173 -77.8596 North 454 522 33,000  Level FlightAware ADS-B
Mon 11:30:21 AM 35.5744 -77.8573 North 456 525 33,000 446 Level FlightAware ADS-B
Mon 11:31:06 AM 35.6666 -77.8559 North 455 524 33,900 1,146 Climbing FlightAware ADS-B
Mon 11:31:50 AM 35.7645 -77.8544 North 455 524 34,700 579 Climbing FlightAware ADS-B
Mon 11:33:00 AM 35.9112 -77.8524 North 452 520 35,000 178 Climbing FlightAware ADS-B
Mon 11:33:31 AM 35.9724 -77.8515 North 455 524 35,000  Level FlightAware ADS-B
Mon 11:34:35 AM 36.1110 -77.8495 North 459 528 35,000  Level FlightAware ADS-B
Mon 11:35:20 AM 36.2051 -77.8481 North 460 529 35,000  Level FlightAware ADS-B
Mon 11:37:04 AM 36.4283 -77.8449 North 454 522 35,000  Level FlightAware ADS-B (EFYL / YLI)
Mon 11:43:01 AM 37.1909 -77.8335 North 463 533 35,000  Level FlightAware ADS-B
Mon 11:43:41 AM 37.2761 -77.8323 North 464 534 35,000 608 Level FlightAware ADS-B
Mon 11:44:20 AM 37.3599 -77.8310 North 460 529 35,800 1,176 Climbing FlightAware ADS-B
Mon 11:45:23 AM 37.4914 -77.8296 359° North 455 524 37,000 837 Climbing FlightAware ADS-B
Mon 11:45:46 AM 37.5393 -77.8344 348° North 449 517 37,000  Level FlightAware ADS-B
Mon 11:46:44 AM 37.6572 -77.8643 348° North 450 518 37,000  Level FlightAware ADS-B
Mon 11:47:23 AM 37.7380 -77.8870 348° North 447 514 37,000  Level FlightAware ADS-B
Mon 11:48:02 AM 37.8178 -77.9031 353° North 454 522 37,000  Level FlightAware ADS-B
Mon 11:48:44 AM 37.9034 -77.9266 347° North 454 522 37,000  Level FlightAware ADS-B
Mon 11:49:23 AM 37.9850 -77.9499 348° North 457 526 37,000  Level FlightAware ADS-B
Mon 11:50:04 AM 38.0689 -77.9741 348° North 458 527 37,000  Level FlightAware ADS-B
Mon 11:50:43 AM 38.1504 -77.9977 348° North 459 528 37,000  Level FlightAware ADS-B
Mon 11:51:24 AM 38.2341 -78.0222 347° North 460 529 37,000  Level FlightAware ADS-B
Mon 11:52:24 AM 38.3593 -78.0590 347° North 459 528 37,000  Level FlightAware ADS-B
Mon 11:53:08 AM 38.4425 -78.0835 347° North 458 527 37,000  Level FlightAware ADS-B (KDAA)
Mon 11:53:35 AM 38.4977 -78.0999 348° North 459 528 37,000  Level FlightAware ADS-B (KDAA)
Mon 11:53:48 AM 38.5290 -78.1090 348° North 459 528 37,000  Level FlightAware ADS-B
Mon 11:54:28 AM 38.6151 -78.1345 347° North 456 525 37,000  Level FlightAware ADS-B
Mon 11:54:33 AM 38.5981 -78.1295 347° North 457 526 37,000  Level FlightAware ADS-B (KJYO)
Mon 11:54:59 AM 38.6625 -78.1485 347° North 456 525 37,000  Level FlightAware ADS-B (KJYO)
Mon 11:55:08 AM 38.6968 -78.1587 347° North 456 525 37,000  Level FlightAware ADS-B
Mon 11:55:33 AM 38.7496 -78.1743 347° North 457 526 37,000  Level FlightAware ADS-B (KJYO)
Mon 11:55:47 AM 38.7774 -78.1827 347° North 457 526 37,000  Level FlightAware ADS-B
Mon 11:56:03 AM 38.7670 -78.1796 347° North 457 526 37,000  Level FlightAware ADS-B (KJYO)
Mon 11:56:39 AM 38.8848 -78.2087 355° North 464 534 37,000  Level FlightAware ADS-B (KJYO)
Mon 11:57:08 AM 38.9469 -78.2150 356° North 466 536 37,000  Level FlightAware ADS-B (KJYO)
Mon 11:57:38 AM 39.0136 -78.2217 356° North 467 537 37,000  Level FlightAware ADS-B (KJYO)
Mon 11:58:08 AM 39.0776 -78.2283 356° North 469 540 37,000  Level FlightAware ADS-B (KJYO)
Mon 11:58:35 AM 39.0901 -78.2296 356° North 471 542 37,000  Level FlightAware ADS-B (KJYO)
Mon 11:59:08 AM 39.1973 -78.2408 356° North 472 543 37,000  Level FlightAware ADS-B (KJYO)
Mon 11:59:38 AM 39.2323 -78.2443 356° North 472 543 37,000  Level FlightAware ADS-B (KJYO)
Mon 12:00:02 PM 39.3118 -78.2525 356° North 471 542 37,000  Level FlightAware ADS-B (KJYO)
Mon 12:00:35 PM 39.3627 -78.2578 356° North 469 540 37,000  Level FlightAware ADS-B (KJYO)
Mon 12:01:07 PM 39.4649 -78.2682 356° North 468 539 37,000  Level FlightAware ADS-B (KJYO)
Mon 12:01:37 PM 39.5298 -78.2750 356° North 467 537 37,000  Level FlightAware ADS-B (KJYO)
Mon 12:02:08 PM 39.5968 -78.2820 356° North 466 536 37,000  Level FlightAware ADS-B (KJYO)
Mon 12:02:35 PM 39.6463 -78.2870 356° North 466 536 37,000  Level FlightAware ADS-B (KJYO)
Mon 12:02:55 PM 39.6986 -78.2926 356° North 465 535 37,000 -509 Level FlightAware ADS-B (KJYO)
Mon 12:08:17 PM 40.3924 -78.2818 North 480 552 34,100 -788 Descending FlightAware ADS-B (CYYZ)
Mon 12:08:53 PM 40.4775 -78.2681 North 481 554 32,300 -2,044 Descending FlightAware ADS-B (CYYZ)
Mon 12:09:48 PM 40.6037 -78.2500 North 481 554 31,000 -1,219 Descending FlightAware ADS-B (CYYZ)
Mon 12:09:57 PM 40.6249 -78.2524 353° North 467 537 31,000  Level FlightAware ADS-B (CYYZ)
Mon 12:10:33 PM 40.6984 -78.2729 348° North 460 529 31,000  Level FlightAware ADS-B (CYYZ)
Mon 12:11:18 PM 40.7929 -78.2988 349° North 461 531 31,000  Level FlightAware ADS-B (CYYZ)
Mon 12:11:30 PM 40.8088 -78.3032 349° North 463 533 31,000 -667 Level FlightAware ADS-B (CYYZ)
Mon 12:12:48 PM 40.9807 -78.3506 349° North 455 524 30,000 -836 Descending FlightAware ADS-B (CYYZ)
Mon 12:13:32 PM 41.0658 -78.3742 349° North 451 519 29,300 -989 Descending FlightAware ADS-B (CYYZ)
Mon 12:14:19 PM 41.1648 -78.4018 348° North 451 519 28,500 -1,013 Descending FlightAware ADS-B (CYYZ)
Mon 12:14:49 PM 41.2249 -78.4184 349° North 447 514 28,000 -960 Descending FlightAware ADS-B (CYYZ)
Mon 12:15:34 PM 41.3158 -78.4437 349° North 441 507 27,300 -1,000 Descending FlightAware ADS-B (CYYZ)
Mon 12:16:19 PM 41.4075 -78.4693 349° North 436 502 26,500 -867 Descending FlightAware ADS-B (CYYZ)
Mon 12:17:04 PM 41.4962 -78.4942 349° North 434 499 26,000 -553 Descending FlightAware ADS-B (CYYZ)
Mon 12:17:35 PM 41.5560 -78.5110 348° North 436 502 25,800 -711 Descending FlightAware ADS-B (CYYZ)
Mon 12:18:20 PM 41.6433 -78.5356 349° North 431 496 25,100 -1,551 Descending FlightAware ADS-B (CYYZ)
Mon 12:19:04 PM 41.7317 -78.5607 348° North 434 499 23,500 -2,270 Descending FlightAware ADS-B (CYYZ)
Mon 12:19:34 PM 41.7902 -78.5773 349° North 434 499 22,300 -2,164 Descending FlightAware ADS-B (CYYZ)
Mon 12:20:05 PM 41.8458 -78.5930 348° North 423 487 21,300 -1,869 Descending FlightAware ADS-B (CYYZ)
Mon 12:20:35 PM 41.9075 -78.6106 349° North 411 473 20,400 -1,680 Descending FlightAware ADS-B (CYYZ)
Mon 12:21:20 PM 41.9882 -78.6336 348° North 393 452 19,200 -1,667 Descending FlightAware ADS-B (CYYZ)
Mon 12:22:05 PM 42.0673 -78.6562 348° North 377 434 17,900 -1,600 Descending FlightAware ADS-B (CYYZ)
Mon 12:22:35 PM 42.1162 -78.6703 348° North 370 426 17,200 -1,421 Descending FlightAware ADS-B (CYYZ)
Mon 12:23:21 PM 42.1911 -78.6916 348° North 351 404 16,100 -1,451 Descending FlightAware ADS-B (CYYZ)
Mon 12:24:06 PM 42.2625 -78.7122 348° North 342 394 15,000 -1,400 Descending FlightAware ADS-B (CYYZ)
Mon 12:24:51 PM 42.3274 -78.7310 349° North 328 377 14,000 -1,360 Descending FlightAware ADS-B (CYYZ)
Mon 12:25:21 PM 42.3724 -78.7439 348° North 320 368 13,300 -1,300 Descending FlightAware ADS-B (CYYZ)
Mon 12:25:51 PM 42.4150 -78.7563 348° North 313 360 12,700 -1,280 Descending FlightAware ADS-B (CYYZ)
Mon 12:26:36 PM 42.4820 -78.7637 North 314 361 11,700 -1,360 Descending FlightAware ADS-B (CYYZ)
Mon 12:27:06 PM 42.5256 -78.7587 North 309 356 11,000 -1,520 Descending FlightAware ADS-B (CYYZ)
Mon 12:27:51 PM 42.5906 -78.7517 North 306 352 9,800 -1,533 Descending FlightAware ADS-B (CYYZ)
Mon 12:28:36 PM 42.6528 -78.7453 North 299 344 8,700 -1,421 Descending FlightAware ADS-B (CYYZ)
Mon 12:29:07 PM 42.6943 -78.7407 North 294 338 8,000 -1,435 Descending FlightAware ADS-B (CYYZ)
Mon 12:29:22 PM 42.7145 -78.7388 North 291 335 7,600 -1,674 Descending FlightAware ADS-B (CYYZ)
Mon 12:29:50 PM 42.7518 -78.7421 354° North 287 330 6,800 -1,600 Descending FlightAware ADS-B (EPLB / LUZ)
Mon 12:29:52 PM 42.7536 -78.7424 355° North 288 331 6,800 -1,875 Level FlightAware ADS-B (CYYZ)
Mon 12:30:06 PM 42.7733 -78.7452 354° North 289 333 6,300 -1,067 Descending FlightAware ADS-B (CYYZ)
Mon 12:30:37 PM 42.8139 -78.7515 354° North 288 331 6,000 -316 Descending FlightAware ADS-B (CYYZ)
Mon 12:31:03 PM 42.8487 -78.7569 353° North 289 333 6,000  Level FlightAware ADS-B (EPLB / LUZ)
Mon 12:31:22 PM 42.8743 -78.7609 354° North 280 322 6,000  Level FlightAware ADS-B (CYYZ)
Mon 12:31:52 PM 42.9096 -78.7642 North 247 284 6,000 -171 Level FlightAware ADS-B (CYYZ)
Mon 12:31:57 PM 42.9138 -78.7633 10° North 246 283 5,900 -1,000 Descending FlightAware ADS-B (CYYZ)
Mon 12:32:22 PM 42.9422 -78.7546 13° North 240 276 5,500 -923 Descending FlightAware ADS-B (CYYZ)
Mon 12:32:36 PM 42.9582 -78.7494 13° North 238 274 5,300 -1,071 Descending FlightAware ADS-B (CYYZ)
Mon 12:32:50 PM 42.9702 -78.7456 13° North 238 274 5,000 -1,161 Descending FlightAware ADS-B (EPLB / LUZ)
Mon 12:33:07 PM 42.9907 -78.7391 12° North 234 269 4,700 -1,065 Descending FlightAware ADS-B (CYYZ)
Mon 12:33:52 PM 43.0393 -78.7295 North 230 265 3,900 -1,040 Descending FlightAware ADS-B (CYYZ)
Mon 12:34:22 PM 43.0698 -78.7280 North 228 262 3,400 -1,050 Descending FlightAware ADS-B (CYYZ)
Mon 12:34:32 PM 43.0796 -78.7276 359° North 227 261 3,200 -1,125 Descending FlightAware ADS-B (CYYZ)
Mon 12:34:38 PM 43.0848 -78.7281 350° North 225 259 3,100 -667 Descending FlightAware ADS-B (CYYZ)
Mon 12:35:08 PM 43.1054 -78.7551 291° West 194 223 2,800 -882 Descending FlightAware ADS-B (CYYZ)
Mon 12:35:12 PM 43.1067 -78.7613 286° West 195 224 2,600 -667 Descending FlightAware ADS-B (CYYZ)
Mon 12:35:53 PM 43.1126 -78.8090 292° West 191 220 2,300 -400 Descending FlightAware ADS-B (CYYZ)
Mon 12:35:57 PM 43.1144 -78.8139 297° West 193 222 2,300 -133 Level FlightAware ADS-B (CYYZ)
Mon 12:36:38 PM 43.1324 -78.8582 299° West 194 223 2,200 -169 Descending FlightAware ADS-B (CYYZ)
Mon 12:37:08 PM 43.1428 -78.8906 283° West 189 217 2,100 -100 Descending FlightAware ADS-B (CYYZ)
Mon 12:37:38 PM 43.1440 -78.9277 270° West 189 217 2,100  Level FlightAware ADS-B (CYYZ)
Mon 12:38:23 PM 43.1438 -78.9807 271° West 187 215 2,100 -267 Level FlightAware ADS-B (CYYZ)
Mon 12:39:08 PM 43.1334 -79.0220 202° Southwest 153 176 1,700 -480 Descending FlightAware ADS-B (CYYZ)
Mon 12:39:13 PM 43.1299 -79.0231 193° South 154 177 1,700 -667 Level FlightAware ADS-B (CYYZ)
Mon 12:39:17 PM 43.1273 -79.0234 180° South 155 178 1,600 -720 Descending FlightAware ADS-B (CYYZ)
Mon 12:39:38 PM 43.1133 -79.0196 150° Southeast 150 173 1,400 -649 Descending FlightAware ADS-B (CYYZ)
Mon 12:39:54 PM 43.1088 -79.0090 96° East 142 163 1,200 -600 Descending FlightAware ADS-B (CYYZ)
Mon 12:40:18 PM 43.1095 -78.9875 90° East 140 161 1,000 -500 Descending FlightAware ADS-B (CYYZ)

Login

Don't have an account? Register now (free) for customized features, flight alerts, and more!